createdAt,value
2022-12-31T00:01:49.903Z,12.59
2022-12-31T00:04:11.353Z,12.58
2022-12-31T00:06:35.299Z,12.51
2022-12-31T00:08:59.055Z,12.50
2022-12-31T00:11:22.206Z,12.59
2022-12-31T00:13:45.856Z,12.67
2022-12-31T00:16:22.074Z,12.68
2022-12-31T00:18:48.677Z,12.66
2022-12-31T00:21:10.662Z,12.70
2022-12-31T00:23:32.208Z,12.77
2022-12-31T00:25:53.623Z,12.80
2022-12-31T00:28:15.094Z,12.79
2022-12-31T00:30:36.602Z,12.83
2022-12-31T00:32:58.119Z,12.79
2022-12-31T00:35:19.546Z,12.84
2022-12-31T00:37:41.027Z,12.87
2022-12-31T00:40:02.514Z,12.82
2022-12-31T00:42:24.031Z,12.77
2022-12-31T00:44:45.447Z,12.86
2022-12-31T00:47:06.912Z,12.82
2022-12-31T00:49:28.331Z,12.87
2022-12-31T00:51:49.832Z,12.90
2022-12-31T00:54:11.256Z,12.92
2022-12-31T00:56:32.966Z,12.89
2022-12-31T00:58:54.460Z,12.93
2022-12-31T01:01:21.753Z,13.00
2022-12-31T01:03:43.757Z,12.99
2022-12-31T01:06:06.230Z,13.10
2022-12-31T01:08:28.185Z,13.09
2022-12-31T01:11:09.210Z,13.11
2022-12-31T01:13:30.653Z,13.10
2022-12-31T01:15:52.198Z,13.15
2022-12-31T01:18:13.859Z,13.08
2022-12-31T01:20:39.744Z,13.12
2022-12-31T01:23:01.189Z,13.18
2022-12-31T01:25:22.676Z,13.17
2022-12-31T01:27:44.206Z,13.21
2022-12-31T01:30:06.112Z,13.28
2022-12-31T01:32:27.564Z,13.23
2022-12-31T01:34:49.086Z,13.26
2022-12-31T01:37:10.573Z,13.26
2022-12-31T01:39:32.051Z,13.25
2022-12-31T01:41:53.530Z,13.33
2022-12-31T01:44:23.779Z,13.40
2022-12-31T01:46:49.625Z,13.34
2022-12-31T01:49:14.123Z,13.39
2022-12-31T01:51:36.762Z,13.41
2022-12-31T01:54:00.469Z,13.42
2022-12-31T01:56:23.808Z,13.40
2022-12-31T01:58:49.619Z,13.38
2022-12-31T02:01:15.300Z,13.41
2022-12-31T02:03:37.716Z,13.42
2022-12-31T02:06:11.842Z,13.29
2022-12-31T02:08:39.938Z,13.30
2022-12-31T02:11:21.132Z,13.29
2022-12-31T02:13:42.620Z,13.26
2022-12-31T02:16:21.807Z,13.33
2022-12-31T02:18:56.270Z,13.33
2022-12-31T02:21:54.129Z,13.32
2022-12-31T02:24:49.550Z,13.35
2022-12-31T02:27:14.921Z,13.47
2022-12-31T02:29:55.133Z,13.47
2022-12-31T02:32:24.802Z,13.49
2022-12-31T02:34:53.326Z,13.52
2022-12-31T02:37:17.385Z,13.56
2022-12-31T02:39:39.517Z,13.51
2022-12-31T02:42:02.141Z,13.55
2022-12-31T02:44:47.968Z,13.50
2022-12-31T02:47:09.377Z,13.43
2022-12-31T02:49:38.981Z,13.34
2022-12-31T02:52:39.094Z,13.40
2022-12-31T02:55:30.441Z,13.20
2022-12-31T02:58:43.936Z,13.14
2022-12-31T03:01:23.851Z,13.15
2022-12-31T03:03:45.669Z,13.20
2022-12-31T03:06:09.393Z,13.19
2022-12-31T03:08:30.873Z,13.25
2022-12-31T03:10:52.415Z,13.29
2022-12-31T03:13:13.880Z,13.31
2022-12-31T03:15:35.361Z,13.34
2022-12-31T03:18:07.771Z,13.39
2022-12-31T03:20:58.487Z,13.44
2022-12-31T03:23:27.186Z,13.54
2022-12-31T03:25:49.213Z,13.58
2022-12-31T03:28:16.786Z,13.60
2022-12-31T03:30:40.706Z,13.65
2022-12-31T03:33:03.489Z,13.67
2022-12-31T03:35:27.051Z,13.78
2022-12-31T03:37:50.079Z,13.77
2022-12-31T03:40:13.750Z,13.82
2022-12-31T03:42:35.224Z,13.80
2022-12-31T03:44:56.729Z,13.82
2022-12-31T03:47:18.169Z,13.87
2022-12-31T03:49:39.614Z,13.89
2022-12-31T03:52:03.058Z,13.82
2022-12-31T03:54:24.542Z,13.82
2022-12-31T03:56:49.449Z,13.86
2022-12-31T03:59:11.123Z,13.99
2022-12-31T04:01:32.803Z,13.97
2022-12-31T04:03:54.407Z,14.00
2022-12-31T04:06:15.928Z,14.01
2022-12-31T04:08:37.411Z,14.06
2022-12-31T04:10:58.891Z,14.03
2022-12-31T04:13:20.388Z,14.03
2022-12-31T04:15:41.841Z,14.07
2022-12-31T04:18:03.505Z,14.13
2022-12-31T04:20:25.102Z,14.13
2022-12-31T04:22:46.575Z,14.15
2022-12-31T04:25:11.711Z,14.14
2022-12-31T04:27:33.259Z,14.17
2022-12-31T04:29:54.702Z,14.15
2022-12-31T04:32:16.128Z,14.13
2022-12-31T04:34:37.754Z,14.16
2022-12-31T04:36:59.489Z,14.14
2022-12-31T04:39:21.018Z,14.15
2022-12-31T04:41:42.504Z,14.13
2022-12-31T04:44:04.086Z,14.15
2022-12-31T04:46:29.256Z,14.14
2022-12-31T04:48:50.974Z,14.14
2022-12-31T04:51:13.244Z,14.10
2022-12-31T04:53:34.724Z,14.06
2022-12-31T04:55:56.341Z,14.09
2022-12-31T04:58:18.318Z,14.09
2022-12-31T05:00:39.756Z,14.10
2022-12-31T05:03:01.242Z,14.09
2022-12-31T05:05:22.721Z,14.05
2022-12-31T05:07:44.173Z,14.07
2022-12-31T05:10:06.328Z,13.98
2022-12-31T05:12:27.802Z,14.03
2022-12-31T05:14:49.245Z,14.03
2022-12-31T05:17:10.684Z,14.05
2022-12-31T05:19:32.153Z,14.02
2022-12-31T05:22:12.236Z,14.02
2022-12-31T05:24:33.954Z,14.06
2022-12-31T05:26:55.413Z,14.06
2022-12-31T05:29:16.848Z,14.09
2022-12-31T05:31:38.305Z,14.08
2022-12-31T05:33:59.747Z,14.12
2022-12-31T05:36:21.235Z,14.13
2022-12-31T05:38:42.691Z,14.16
2022-12-31T05:41:07.524Z,14.20
2022-12-31T05:43:29.431Z,14.09
2022-12-31T05:45:50.910Z,14.12
2022-12-31T05:48:12.387Z,14.15
2022-12-31T05:50:33.887Z,14.08
2022-12-31T05:52:55.368Z,14.05
2022-12-31T05:55:16.826Z,14.08
2022-12-31T05:57:39.115Z,14.13
2022-12-31T06:00:00.562Z,14.11
2022-12-31T06:02:23.127Z,14.12
2022-12-31T06:04:44.585Z,14.15
2022-12-31T06:07:06.194Z,14.14
2022-12-31T06:09:27.619Z,14.17
2022-12-31T06:11:49.220Z,14.20
2022-12-31T06:14:10.823Z,14.23
2022-12-31T06:16:32.308Z,14.29
2022-12-31T06:18:54.272Z,14.34
2022-12-31T06:21:15.935Z,14.40
2022-12-31T06:23:37.388Z,14.43
2022-12-31T06:26:05.462Z,14.43
2022-12-31T06:28:26.887Z,14.44
2022-12-31T06:30:48.713Z,14.43
2022-12-31T06:33:10.220Z,14.44
2022-12-31T06:35:31.757Z,14.43
2022-12-31T06:37:53.231Z,14.44
2022-12-31T06:40:14.790Z,14.52
2022-12-31T06:42:36.305Z,14.52
2022-12-31T06:44:58.992Z,14.48
2022-12-31T06:47:20.477Z,14.53
2022-12-31T06:49:41.954Z,14.51
2022-12-31T06:52:03.516Z,14.56
2022-12-31T06:54:24.960Z,14.54
2022-12-31T06:56:46.648Z,14.49
2022-12-31T06:59:22.911Z,14.53
2022-12-31T07:02:03.548Z,14.52
2022-12-31T07:04:48.627Z,14.52
2022-12-31T07:07:43.185Z,14.48
2022-12-31T07:10:16.550Z,14.56
2022-12-31T07:13:40.580Z,14.56
2022-12-31T07:16:20.242Z,14.60
2022-12-31T07:19:01.994Z,14.62
2022-12-31T07:21:44.171Z,14.65
2022-12-31T07:24:07.358Z,14.70
2022-12-31T07:26:57.315Z,14.63
2022-12-31T07:29:32.261Z,14.69
2022-12-31T07:32:42.470Z,14.65
2022-12-31T07:35:35.095Z,14.68
2022-12-31T07:38:24.977Z,14.71
2022-12-31T07:41:07.255Z,14.72
2022-12-31T07:43:55.952Z,14.80
2022-12-31T07:46:21.456Z,14.80
2022-12-31T07:48:43.175Z,14.85
2022-12-31T07:51:05.111Z,14.89
2022-12-31T07:53:27.313Z,14.96
2022-12-31T07:55:54.609Z,15.03
2022-12-31T07:58:24.121Z,15.04
2022-12-31T08:00:45.984Z,15.06
2022-12-31T08:03:19.370Z,15.04
2022-12-31T08:05:40.764Z,15.14
2022-12-31T08:08:24.917Z,15.21
2022-12-31T08:11:04.526Z,15.21
2022-12-31T08:13:27.334Z,15.14
2022-12-31T08:15:49.111Z,15.11
2022-12-31T08:18:10.942Z,15.21
2022-12-31T08:20:36.892Z,15.23
2022-12-31T08:23:01.003Z,15.35
2022-12-31T08:26:00.445Z,15.37
2022-12-31T08:28:31.005Z,15.31
2022-12-31T08:31:03.951Z,15.32
2022-12-31T08:33:46.805Z,15.41
2022-12-31T08:36:27.882Z,15.41
2022-12-31T08:39:02.305Z,15.47
2022-12-31T08:41:44.303Z,15.46
2022-12-31T08:44:32.171Z,15.38
2022-12-31T08:46:57.531Z,15.47
2022-12-31T08:49:19.240Z,15.45
2022-12-31T08:51:40.998Z,15.52
2022-12-31T08:54:02.801Z,15.56
2022-12-31T08:56:40.067Z,15.57
2022-12-31T08:59:27.841Z,15.64
2022-12-31T09:01:49.362Z,15.63
2022-12-31T09:04:27.085Z,15.72
2022-12-31T09:06:58.678Z,15.75
2022-12-31T09:09:27.185Z,15.72
2022-12-31T09:11:54.295Z,15.84
2022-12-31T09:14:39.133Z,15.83
2022-12-31T09:17:24.026Z,15.82
2022-12-31T09:19:45.612Z,15.83
2022-12-31T09:22:07.282Z,15.76
2022-12-31T09:24:28.947Z,15.86
2022-12-31T09:26:53.320Z,15.93
2022-12-31T09:29:33.469Z,16.00
2022-12-31T09:32:36.414Z,16.02
2022-12-31T09:35:31.766Z,15.98
2022-12-31T09:38:37.727Z,16.10
2022-12-31T09:41:28.956Z,16.21
2022-12-31T09:44:19.417Z,16.22
2022-12-31T09:47:03.889Z,16.22
2022-12-31T09:49:59.361Z,16.18
2022-12-31T09:52:25.421Z,16.22
2022-12-31T09:55:00.339Z,16.27
2022-12-31T09:57:39.274Z,16.27
2022-12-31T10:00:03.713Z,16.33
2022-12-31T10:03:06.583Z,16.30
2022-12-31T10:05:52.931Z,16.24
2022-12-31T10:08:36.132Z,16.30
2022-12-31T10:11:04.320Z,16.24
2022-12-31T10:13:35.410Z,16.25
2022-12-31T10:16:13.512Z,16.34
2022-12-31T10:18:59.754Z,16.46
2022-12-31T10:21:48.747Z,16.63
2022-12-31T10:24:12.928Z,16.54
2022-12-31T10:27:04.568Z,16.50
2022-12-31T10:29:45.346Z,16.66
2022-12-31T10:32:31.208Z,16.67
2022-12-31T10:35:00.691Z,16.57
2022-12-31T10:37:34.355Z,16.68
2022-12-31T10:40:09.453Z,16.84
2022-12-31T10:42:49.133Z,16.77
2022-12-31T10:46:08.674Z,16.78
2022-12-31T10:48:49.993Z,16.91
2022-12-31T10:51:34.867Z,16.79
2022-12-31T10:54:08.219Z,16.76
2022-12-31T10:56:50.691Z,16.92
2022-12-31T10:59:44.319Z,16.83
2022-12-31T11:02:24.328Z,16.97
2022-12-31T11:05:10.410Z,16.83
2022-12-31T11:08:02.762Z,16.88
2022-12-31T11:10:42.967Z,16.88
2022-12-31T11:13:33.895Z,16.97
2022-12-31T11:16:17.806Z,16.95
2022-12-31T11:19:01.948Z,16.82
2022-12-31T11:21:50.557Z,16.90
2022-12-31T11:24:42.989Z,16.83
2022-12-31T11:27:16.308Z,16.83
2022-12-31T11:30:00.951Z,16.88
2022-12-31T11:32:50.913Z,16.97
2022-12-31T11:35:28.218Z,16.95
2022-12-31T11:37:58.565Z,17.04
2022-12-31T11:40:48.402Z,16.76
2022-12-31T11:43:21.096Z,16.79
2022-12-31T11:46:13.425Z,16.76
2022-12-31T11:49:02.560Z,16.77
2022-12-31T11:51:58.135Z,16.97
2022-12-31T11:54:28.611Z,16.90
2022-12-31T11:57:16.474Z,16.87
2022-12-31T11:59:37.983Z,17.05
2022-12-31T12:02:10.168Z,16.95
2022-12-31T12:04:31.796Z,17.20
2022-12-31T12:06:53.444Z,17.14
2022-12-31T12:09:20.540Z,17.25
2022-12-31T12:11:42.135Z,17.17
2022-12-31T12:14:44.242Z,17.15
2022-12-31T12:17:15.093Z,17.11
2022-12-31T12:19:43.252Z,17.03
2022-12-31T12:22:13.273Z,17.12
2022-12-31T12:24:34.825Z,16.89
2022-12-31T12:26:57.526Z,17.06
2022-12-31T12:29:31.955Z,17.04
2022-12-31T12:32:01.016Z,16.94
2022-12-31T12:34:34.825Z,16.86
2022-12-31T12:36:56.651Z,16.99
2022-12-31T12:39:33.258Z,16.96
2022-12-31T12:42:05.562Z,17.01
2022-12-31T12:44:27.475Z,17.00
2022-12-31T12:46:52.220Z,16.99
2022-12-31T12:49:29.423Z,17.02
2022-12-31T12:51:56.900Z,17.04
2022-12-31T12:54:52.970Z,16.96
2022-12-31T12:57:29.135Z,16.89
2022-12-31T13:00:14.355Z,16.94
2022-12-31T13:03:08.142Z,17.01
2022-12-31T13:05:51.286Z,16.98
2022-12-31T13:08:32.259Z,16.96
2022-12-31T13:11:29.085Z,16.92
2022-12-31T13:13:58.645Z,16.86
2022-12-31T13:16:34.075Z,16.96
2022-12-31T13:19:05.745Z,16.84
2022-12-31T13:21:31.808Z,16.94
2022-12-31T13:24:11.599Z,16.82
2022-12-31T13:26:42.210Z,16.78
2022-12-31T13:29:05.670Z,16.81
2022-12-31T13:31:33.823Z,16.68
2022-12-31T13:34:10.853Z,16.77
2022-12-31T13:36:35.717Z,16.67
2022-12-31T13:39:02.835Z,16.76
2022-12-31T13:41:39.943Z,16.74
2022-12-31T13:44:22.521Z,16.73
2022-12-31T13:47:08.122Z,16.83
2022-12-31T13:49:52.628Z,16.69
2022-12-31T13:52:35.501Z,16.65
2022-12-31T13:55:18.839Z,16.73
2022-12-31T13:58:12.644Z,16.78
2022-12-31T14:00:58.181Z,16.72
2022-12-31T14:03:44.223Z,16.75
2022-12-31T14:06:22.363Z,16.89
2022-12-31T14:08:45.523Z,16.78
2022-12-31T14:11:15.897Z,16.90
2022-12-31T14:13:45.525Z,16.86
2022-12-31T14:16:34.530Z,16.83
2022-12-31T14:19:31.021Z,16.82
2022-12-31T14:21:56.865Z,16.87
2022-12-31T14:24:45.928Z,16.80
2022-12-31T14:27:14.915Z,16.71
2022-12-31T14:29:49.334Z,16.65
2022-12-31T14:32:16.488Z,16.58
2022-12-31T14:35:04.205Z,16.55
2022-12-31T14:37:55.779Z,16.57
2022-12-31T14:40:26.273Z,16.57
2022-12-31T14:43:06.882Z,16.66
2022-12-31T14:45:36.124Z,16.55
2022-12-31T14:48:28.574Z,16.58
2022-12-31T14:50:50.619Z,16.60
2022-12-31T14:53:38.485Z,16.50
2022-12-31T14:56:05.962Z,16.45
2022-12-31T14:58:36.580Z,16.40
2022-12-31T15:01:08.856Z,16.41
2022-12-31T15:03:40.113Z,16.40
2022-12-31T15:06:24.624Z,16.26
2022-12-31T15:08:46.032Z,16.29
2022-12-31T15:11:23.466Z,16.26
2022-12-31T15:13:54.101Z,16.14
2022-12-31T15:16:48.573Z,16.09
2022-12-31T15:19:18.939Z,16.14
2022-12-31T15:21:54.839Z,16.08
2022-12-31T15:24:28.008Z,15.99
2022-12-31T15:26:55.863Z,16.01
2022-12-31T15:29:30.737Z,16.01
2022-12-31T15:31:53.196Z,15.95
2022-12-31T15:34:30.468Z,15.88
2022-12-31T15:36:59.013Z,15.93
2022-12-31T15:39:32.573Z,15.92
2022-12-31T15:44:50.011Z,15.86
2022-12-31T15:47:45.826Z,15.89
2022-12-31T15:50:18.077Z,15.76
2022-12-31T15:52:44.499Z,15.80
2022-12-31T15:55:06.996Z,15.91
2022-12-31T15:57:34.190Z,15.84
2022-12-31T16:00:01.202Z,15.80
2022-12-31T16:02:25.642Z,15.82
2022-12-31T16:04:48.419Z,15.80
2022-12-31T16:07:12.401Z,15.78
2022-12-31T16:09:35.948Z,15.72
2022-12-31T16:11:59.084Z,15.75
2022-12-31T16:14:24.774Z,15.76
2022-12-31T16:16:57.947Z,15.78
2022-12-31T16:19:31.380Z,15.75
2022-12-31T16:21:56.360Z,15.69
2022-12-31T16:24:32.118Z,15.74
2022-12-31T16:26:56.652Z,15.74
2022-12-31T16:29:21.668Z,15.76
2022-12-31T16:31:45.378Z,15.78
2022-12-31T16:34:14.861Z,15.75
2022-12-31T16:36:36.327Z,15.75
2022-12-31T16:39:24.167Z,15.71
2022-12-31T16:41:45.629Z,15.69
2022-12-31T16:44:25.105Z,15.71
2022-12-31T16:46:47.575Z,15.75
2022-12-31T16:49:20.847Z,15.69
2022-12-31T16:51:43.017Z,15.67
2022-12-31T16:54:04.636Z,15.64
2022-12-31T16:56:33.393Z,15.66
2022-12-31T16:59:01.940Z,15.72
2022-12-31T17:01:27.931Z,15.78
2022-12-31T17:03:55.350Z,15.66
2022-12-31T17:06:20.016Z,15.73
2022-12-31T17:08:42.869Z,15.72
2022-12-31T17:11:04.567Z,15.74
2022-12-31T17:13:32.239Z,15.70
2022-12-31T17:15:55.012Z,15.76
2022-12-31T17:18:22.858Z,15.70
2022-12-31T17:20:44.810Z,15.71
2022-12-31T17:23:08.830Z,15.76
2022-12-31T17:25:32.835Z,15.81
2022-12-31T17:28:00.235Z,15.77
2022-12-31T17:30:27.854Z,15.83
2022-12-31T17:32:50.189Z,15.77
2022-12-31T17:35:35.393Z,15.85
2022-12-31T17:38:22.018Z,15.80
2022-12-31T17:40:52.812Z,15.82
2022-12-31T17:43:15.260Z,15.77
2022-12-31T17:45:38.407Z,15.76
2022-12-31T17:47:59.930Z,15.76
2022-12-31T17:50:24.608Z,15.81
2022-12-31T17:52:46.801Z,15.80
2022-12-31T17:55:08.314Z,15.78
2022-12-31T17:57:29.914Z,15.82
2022-12-31T17:59:51.517Z,15.78
2022-12-31T18:02:13.292Z,15.78
2022-12-31T18:04:34.834Z,15.81
2022-12-31T18:06:56.350Z,15.78
2022-12-31T18:09:18.146Z,15.76
2022-12-31T18:11:40.621Z,15.83
2022-12-31T18:14:02.353Z,15.76
2022-12-31T18:16:23.981Z,15.77
2022-12-31T18:18:45.758Z,15.72
2022-12-31T18:21:13.925Z,15.76
2022-12-31T18:23:37.682Z,15.73
2022-12-31T18:25:59.132Z,15.71
2022-12-31T18:28:21.045Z,15.72
2022-12-31T18:30:43.422Z,15.72
2022-12-31T18:33:06.475Z,15.73
2022-12-31T18:35:58.063Z,15.78
2022-12-31T18:38:14.270Z,15.71
2022-12-31T18:40:35.886Z,15.81
2022-12-31T18:43:02.675Z,15.77
2022-12-31T18:45:26.265Z,15.76
2022-12-31T18:47:47.822Z,15.73
2022-12-31T18:50:14.553Z,15.65
2022-12-31T18:52:36.091Z,15.66
2022-12-31T18:54:58.283Z,15.72
2022-12-31T18:57:19.737Z,15.67
2022-12-31T18:59:41.725Z,15.67
2022-12-31T19:02:03.569Z,15.65
2022-12-31T19:04:28.269Z,15.68
2022-12-31T19:06:50.032Z,15.74
2022-12-31T19:09:30.641Z,15.67
2022-12-31T19:11:54.252Z,15.61
2022-12-31T19:14:18.554Z,15.63
2022-12-31T19:16:40.085Z,15.62
2022-12-31T19:19:06.782Z,15.60
2022-12-31T19:21:30.044Z,15.65
2022-12-31T19:23:51.816Z,15.65
2022-12-31T19:26:21.414Z,15.60
2022-12-31T19:28:44.155Z,15.58
2022-12-31T19:31:05.693Z,15.59
2022-12-31T19:33:27.128Z,15.61
2022-12-31T19:35:49.249Z,15.64
2022-12-31T19:38:28.719Z,15.68
2022-12-31T19:40:51.015Z,15.68
2022-12-31T19:43:14.434Z,15.61
2022-12-31T19:45:35.906Z,15.57
2022-12-31T19:47:57.396Z,15.59
2022-12-31T19:50:25.557Z,15.58
2022-12-31T19:52:49.260Z,15.52
2022-12-31T19:55:16.675Z,15.50
2022-12-31T19:57:38.141Z,15.51
2022-12-31T19:59:59.606Z,15.54
2022-12-31T20:02:21.296Z,15.49
2022-12-31T20:04:42.850Z,15.48
2022-12-31T20:07:04.321Z,15.42
2022-12-31T20:09:25.836Z,15.46
2022-12-31T20:11:47.326Z,15.42
2022-12-31T20:14:08.771Z,15.39
2022-12-31T20:16:31.833Z,15.36
2022-12-31T20:18:53.436Z,15.34
2022-12-31T20:21:20.992Z,15.38
2022-12-31T20:23:42.413Z,15.38
2022-12-31T20:26:04.070Z,15.36
2022-12-31T20:28:26.035Z,15.27
2022-12-31T20:30:47.519Z,15.35
2022-12-31T20:33:10.388Z,15.32
2022-12-31T20:35:34.653Z,15.32
2022-12-31T20:37:56.216Z,15.42
2022-12-31T20:40:17.646Z,15.40
2022-12-31T20:42:40.707Z,15.44
2022-12-31T20:45:02.201Z,15.46
2022-12-31T20:47:23.674Z,15.41
2022-12-31T20:50:10.524Z,15.44
2022-12-31T20:52:26.497Z,15.44
2022-12-31T20:54:47.963Z,15.50
2022-12-31T20:57:09.463Z,15.53
2022-12-31T20:59:30.972Z,15.46
2022-12-31T21:04:33.975Z,15.52
2022-12-31T21:06:55.601Z,15.47
2022-12-31T21:09:17.052Z,15.48
2022-12-31T21:11:56.870Z,15.50
2022-12-31T21:14:18.327Z,15.52
2022-12-31T21:16:39.775Z,15.60
2022-12-31T21:19:01.721Z,15.53
2022-12-31T21:21:23.689Z,15.61
2022-12-31T21:23:45.156Z,15.59
2022-12-31T21:26:07.097Z,15.67
2022-12-31T21:28:28.551Z,15.61
2022-12-31T21:30:49.987Z,15.59
2022-12-31T21:33:11.462Z,15.61
2022-12-31T21:35:44.436Z,15.56
2022-12-31T21:38:09.023Z,15.62
2022-12-31T21:40:30.969Z,15.56
2022-12-31T21:42:52.407Z,15.56
2022-12-31T21:45:13.953Z,15.61
2022-12-31T21:47:53.822Z,15.63
2022-12-31T21:50:15.348Z,15.61
2022-12-31T21:52:36.818Z,15.66
2022-12-31T21:55:21.527Z,15.54
2022-12-31T21:58:15.583Z,15.57
2022-12-31T22:00:45.028Z,15.56
2022-12-31T22:03:25.112Z,15.62
2022-12-31T22:05:49.669Z,15.59
2022-12-31T22:08:11.121Z,15.59
2022-12-31T22:10:37.080Z,15.56
2022-12-31T22:12:59.988Z,15.60
2022-12-31T22:15:21.456Z,15.58
2022-12-31T22:17:42.909Z,15.53
2022-12-31T22:22:46.525Z,15.46
2022-12-31T22:25:08.630Z,15.56
2022-12-31T22:27:30.214Z,15.61
2022-12-31T22:29:51.692Z,15.51
2022-12-31T22:32:13.144Z,15.57
2022-12-31T22:34:34.562Z,15.59
2022-12-31T22:36:56.014Z,15.54
2022-12-31T22:39:43.861Z,15.54
2022-12-31T22:41:59.165Z,15.50
2022-12-31T22:44:20.837Z,15.52
2022-12-31T22:46:42.391Z,15.50
2022-12-31T22:49:04.382Z,15.52
2022-12-31T22:51:54.958Z,15.51
2022-12-31T22:54:08.007Z,15.54
2022-12-31T22:56:29.468Z,15.47
2022-12-31T22:58:50.886Z,15.49
2022-12-31T23:01:19.075Z,15.45
2022-12-31T23:03:43.756Z,15.45
2022-12-31T23:06:05.274Z,15.46
2022-12-31T23:08:26.775Z,15.45
2022-12-31T23:11:05.499Z,15.50
2022-12-31T23:13:50.499Z,15.42
2022-12-31T23:16:31.417Z,15.42
2022-12-31T23:19:11.542Z,15.37
2022-12-31T23:21:51.392Z,15.37
2022-12-31T23:24:20.183Z,15.40
2022-12-31T23:26:44.509Z,15.40
2022-12-31T23:29:05.965Z,15.36
2022-12-31T23:31:28.903Z,15.40
2022-12-31T23:33:50.389Z,15.33
2022-12-31T23:36:11.907Z,15.32
2022-12-31T23:38:33.504Z,15.37
2022-12-31T23:40:54.937Z,15.37
2022-12-31T23:43:22.240Z,15.32
2022-12-31T23:45:43.715Z,15.35
2022-12-31T23:48:05.283Z,15.39
2022-12-31T23:50:26.999Z,15.37
2022-12-31T23:52:48.531Z,15.34
2022-12-31T23:55:10.130Z,15.35
2022-12-31T23:57:31.811Z,15.33
2022-12-31T23:59:53.314Z,15.39
